COOK1: Arkansas River Nr Coolidge, KS

                                SHEF ID:       COOK1     ARKANSAS R NR COOLIDGE, KS
STATION TYPE:
Regulating: Stage = 8.00, Flow = 2028

PRECIP STAGE STAGE(2) RIV-FLOW WTR-TEMP CONDUCT BAT-LOAD
in ft ft cfs F umho/cm volt
Ccp-Rev Ccp-Rev Ccp-Rev Ccp-Rev Ccp-Rev Ccp-Rev Ccp-Rev
(America/Chicago)
08/02 00:00 0.00 4.57 4.71 384 79.93 3254 12.95
08/02 01:00 0.00 4.59 4.75 389 79.39 3269 12.89
08/02 02:00 0.00 4.63 4.75 400 78.89 3267 12.89
08/02 03:00 0.00 4.59 4.76 389 78.28 3260 12.89
08/02 04:00 0.00 4.59 4.74 389 77.61 3254 12.89
08/02 05:00 0.00 4.60 4.75 392 76.91 3245 12.83
08/02 06:00 0.00 4.60 4.75 392 76.23 3256 12.77
08/02 07:00 0.00 4.59 4.74 389 75.60 3254 12.77
08/02 08:00 0.00 4.59 4.76 389 75.07 3251 12.77
08/02 09:00 0.00 4.63 4.77 400 74.88 3251 12.89
08/02 10:00 0.00 4.61 4.76 394 75.18 3254 13.07
08/02 11:00 0.00 4.62 4.79 397 75.65 3263 13.59
08/02 12:00 0.00 4.61 4.75 394 76.66 3267 13.71
08/02 13:00 0.00 4.63 4.78 400 77.79 3267 13.77
08/02 14:00 0.00 4.64 4.77 402 78.85 3265 13.77
08/02 15:00 0.00 4.61 4.75 394 79.86 3265 13.83
08/02 16:00 0.00 4.63 4.75 400 80.78 3262 13.65
08/02 17:00 0.00 4.63 4.76 400 81.61 3260 13.48
08/02 18:00 0.00 4.60 4.75 392 82.04 3254 13.36
08/02 19:00 0.00 4.60 4.75 392 82.02 3244 13.24
08/02 20:00 0.00 4.63 4.76 400 81.64 3244 13.18
08/02 21:00 0.00 4.58 4.71 386 81.10 3242 13.07
08/02 22:00 0.00 4.60 4.74 392 80.60 3238 13.00
08/02 23:00 ---- ---- ---- ---- ---- ---- ----
Data processed at Sat 03Aug2024 04:30 GMT

Parsing this webpage?

Checkout our new Data API! CWMSDataAPI (CDA)

Timeseries IDs (TSIDs)

TSIDs used from left to right in the data table
COOL.Precip-Inc.Total.1Hour.1Hour.Ccp-Rev
COOL.Stage.Inst.1Hour.0.Ccp-Rev
COOL.Stage-Alt.Inst.1Hour.0.Ccp-Rev
COOL.Flow.Inst.1Hour.0.Ccp-Rev
COOL.Temp-Water.Inst.1Hour.0.Ccp-Rev
COOL.Cond.Inst.1Hour.0.Ccp-Rev
COOL.Volt-Battery Load.Inst.1Hour.0.Ccp-Rev

                            

All information presented herein is the property of the government of the United States of America and may be revised or deleted at any time without prior notice. Dissemination of this information without the expressed written consent of the Public Affairs Office, Tulsa District U.S. Army Corps of Engineers is strictly prohibited. These data are gathered electronically and, as presented, have NOT undergone any form of quality control. These data are NOT guaranteed to be valid or correct.